Time;durP1;ratioP1;P1;durP2;ratioP2;P2;SDS_P1;SDS_P2;PMS_P1;PMS_P2;Temp;Humidity;BMP_temperature;BMP_pressure;BME280_temperature;BME280_humidity;BME280_pressure;Samples;Min_cycle;Max_cycle;Signal;HPM_P1;HPM_P2
2022/05/30 00:00:48;;;;;;;9.63;8.73;;;7.40;99.90;;;6.13;100.00;97427.28;5070263;28;20535;-73
2022/05/30 00:03:17;;;;;;;10.70;9.70;;;7.40;99.90;;;6.01;100.00;97413.63;5066912;28;21006;-69
2022/05/30 00:05:46;;;;;;;9.70;8.90;;;7.30;99.90;;;5.93;100.00;97418.13;5066700;28;20474;-69
2022/05/30 00:08:14;;;;;;;11.87;10.10;;;7.30;99.90;;;5.88;100.00;97415.22;5072481;28;20512;-69
2022/05/30 00:10:41;;;;;;;11.13;10.07;;;7.30;99.90;;;5.86;100.00;97411.91;5061543;28;20467;-69
2022/05/30 00:13:08;;;;;;;9.73;8.83;;;7.20;99.90;;;5.77;100.00;97402.38;5054160;28;20965;-70
2022/05/30 00:15:36;;;;;;;11.73;10.63;;;7.20;99.90;;;5.82;100.00;97406.13;5051651;28;20543;-70
2022/05/30 00:18:07;;;;;;;12.30;9.30;;;7.20;99.90;;;5.83;100.00;97414.97;5070601;28;20467;-70
2022/05/30 00:20:35;;;;;;;10.60;9.57;;;7.10;99.90;;;5.69;100.00;97400.69;5068364;28;20524;-71
2022/05/30 00:23:02;;;;;;;11.03;9.93;;;7.10;99.90;;;5.04;100.00;97334.81;5071628;28;21038;-70
2022/05/30 00:25:29;;;;;;;10.47;9.60;;;6.90;99.90;;;5.46;100.00;97411.69;5060452;28;20473;-69
2022/05/30 00:27:56;;;;;;;10.33;9.33;;;6.70;99.90;;;5.42;100.00;97389.84;5071667;28;20593;-69
2022/05/30 00:30:23;;;;;;;10.97;9.97;;;6.80;99.90;;;5.65;100.00;97405.63;5055436;28;20543;-71
2022/05/30 00:32:50;;;;;;;11.77;9.50;;;6.90;99.90;;;5.62;100.00;97408.69;5040013;28;20453;-68
2022/05/30 00:35:18;;;;;;;9.33;8.43;;;6.90;99.90;;;5.73;100.00;97411.84;5054843;28;21006;-69
2022/05/30 00:37:46;;;;;;;13.57;10.20;;;7.00;99.90;;;5.74;100.00;97408.13;5052836;28;20505;-69
2022/05/30 00:40:13;;;;;;;11.13;10.13;;;7.00;99.90;;;5.66;100.00;97404.59;5045260;28;20497;-72
2022/05/30 00:42:40;;;;;;;10.57;9.17;;;6.90;99.90;;;5.59;100.00;97406.41;5071418;28;20455;-70
2022/05/30 00:45:10;;;;;;;11.20;10.20;;;6.90;99.90;;;5.62;100.00;97394.50;5079411;28;20570;-69
2022/05/30 00:47:38;;;;;;;14.50;10.57;;;6.90;99.90;;;5.56;100.00;97396.09;5069704;28;20464;-69
2022/05/30 00:50:07;;;;;;;9.87;8.83;;;6.90;99.90;;;5.52;100.00;97400.19;5051819;28;20775;-70
2022/05/30 00:52:41;;;;;;;9.87;8.97;;;6.80;99.90;;;5.55;100.00;97383.72;5075784;28;20580;-71
2022/05/30 00:55:12;;;;;;;10.33;9.37;;;6.90;99.90;;;5.47;100.00;97398.13;5050511;28;20781;-70
2022/05/30 00:57:42;;;;;;;9.73;8.70;;;6.80;99.90;;;5.42;100.00;97389.03;5070746;28;20963;-71
2022/05/30 01:00:13;;;;;;;9.90;8.90;;;6.80;99.90;;;5.33;100.00;97381.13;5052217;28;20546;-70
2022/05/30 01:02:43;;;;;;;9.80;9.00;;;6.70;99.90;;;5.11;100.00;97358.94;5061606;28;20503;-70
2022/05/30 01:08:02;;;;;;;9.63;8.40;;;6.60;99.90;;;5.14;100.00;97377.28;5056316;28;20492;-71
2022/05/30 01:10:30;;;;;;;11.33;10.10;;;6.50;99.90;;;5.06;100.00;97382.81;5047655;28;20526;-70
2022/05/30 01:12:58;;;;;;;9.43;8.53;;;6.40;99.90;;;5.05;100.00;97363.25;5073544;28;20541;-70
2022/05/30 01:15:29;;;;;;;10.33;9.43;;;6.40;99.90;;;5.01;100.00;97367.34;5079633;28;20546;-70
2022/05/30 01:18:00;;;;;;;10.17;9.10;;;6.40;99.90;;;4.96;100.00;97361.75;5059925;28;20535;-70
2022/05/30 01:20:45;;;;;;;9.77;8.77;;;6.40;99.90;;;4.96;100.00;97369.78;5077465;28;20456;-71
2022/05/30 01:23:42;;;;;;;9.33;8.53;;;6.40;99.90;;;5.01;100.00;97367.34;5068840;28;20461;-71
2022/05/30 01:26:38;;;;;;;10.27;9.17;;;6.30;99.90;;;4.90;100.00;97370.53;5069701;28;20510;-70
2022/05/30 01:29:12;;;;;;;10.33;9.20;;;6.30;99.90;;;4.80;100.00;97377.09;5067220;28;20521;-71
2022/05/30 01:31:40;;;;;;;9.80;7.80;;;6.20;99.90;;;4.74;100.00;97364.47;5054477;28;20837;-72
2022/05/30 01:34:07;;;;;;;10.13;9.30;;;6.10;99.90;;;4.68;100.00;97365.25;5072795;28;20493;-71
2022/05/30 01:36:35;;;;;;;9.23;8.53;;;6.10;99.90;;;4.54;100.00;97372.31;5068572;28;20469;-73
2022/05/30 01:39:04;;;;;;;10.47;9.50;;;6.00;99.90;;;4.60;100.00;97365.38;5044350;28;20459;-70
2022/05/30 01:41:32;;;;;;;9.80;8.90;;;6.00;99.90;;;4.51;100.00;97365.53;5063711;28;20517;-71
2022/05/30 01:44:00;;;;;;;10.13;9.10;;;5.90;99.90;;;4.62;100.00;97368.69;5063892;28;21046;-70
2022/05/30 01:46:28;;;;;;;9.97;8.83;;;6.00;99.90;;;4.56;100.00;97370.31;5066412;28;20575;-74
2022/05/30 01:48:55;;;;;;;10.07;9.17;;;6.00;99.90;;;4.58;100.00;97362.06;5067410;28;20463;-72
2022/05/30 01:51:23;;;;;;;9.50;8.50;;;6.00;99.90;;;4.50;100.00;97363.88;5048452;28;20456;-69
2022/05/30 01:53:51;;;;;;;8.83;8.10;;;5.90;99.90;;;4.54;100.00;97365.13;5043834;28;20474;-69
2022/05/30 01:56:19;;;;;;;10.00;9.03;;;5.90;99.90;;;4.57;100.00;97365.75;5045175;28;20537;-73
2022/05/30 01:58:46;;;;;;;10.53;9.43;;;6.00;99.90;;;4.41;100.00;97366.88;5041228;28;20463;-74
2022/05/30 02:01:20;;;;;;;10.40;9.40;;;5.80;99.90;;;4.35;100.00;97360.44;5059757;28;20825;-70
2022/05/30 02:03:50;;;;;;;9.23;8.33;;;5.70;99.90;;;4.27;100.00;97353.38;5065841;28;20489;-70
2022/05/30 02:06:19;;;;;;;9.47;8.67;;;5.70;99.90;;;4.29;100.00;97370.06;5056013;28;20482;-70
2022/05/30 02:08:48;;;;;;;9.83;8.57;;;5.70;99.90;;;4.21;100.00;97360.31;5057894;28;20472;-72
2022/05/30 02:11:16;;;;;;;11.13;9.20;;;5.70;99.90;;;4.18;100.00;97362.53;5057101;28;20467;-72
2022/05/30 02:13:44;;;;;;;11.03;9.97;;;5.60;99.90;;;4.13;100.00;97348.91;5047285;28;20550;-69
2022/05/30 02:19:01;;;;;;;11.60;9.90;;;5.60;99.90;;;4.08;100.00;97352.16;5063314;28;20466;-71
2022/05/30 02:21:30;;;;;;;9.40;8.40;;;5.50;99.90;;;4.09;100.00;97353.81;5071589;28;20546;-70
2022/05/30 02:23:57;;;;;;;9.87;8.87;;;5.50;99.90;;;4.06;100.00;97348.84;5064009;28;20577;-73
2022/05/30 02:26:25;;;;;;;10.10;9.10;;;5.40;99.90;;;4.03;100.00;97352.72;5065418;28;20555;-73
2022/05/30 02:28:52;;;;;;;9.77;8.80;;;5.40;99.90;;;4.05;100.00;97352.53;5067807;28;20503;-69
2022/05/30 02:31:20;;;;;;;10.10;8.93;;;5.50;99.90;;;3.93;100.00;97355.72;5065643;28;20455;-72
2022/05/30 02:36:44;;;;;;;13.03;9.60;;;5.30;99.90;;;3.82;100.00;97348.19;5050569;28;20502;-69
2022/05/30 02:39:14;;;;;;;9.60;8.70;;;5.20;99.90;;;3.74;100.00;97342.97;5063786;28;20461;-69
2022/05/30 02:41:42;;;;;;;8.97;8.17;;;5.20;99.90;;;3.59;100.00;97349.16;5051923;28;20493;-71
2022/05/30 02:44:10;;;;;;;9.77;8.77;;;5.00;99.90;;;3.52;100.00;97349.09;5048833;28;20462;-70
2022/05/30 02:46:38;;;;;;;8.83;8.13;;;4.90;99.90;;;3.47;100.00;97339.97;5063258;28;20487;-71
2022/05/30 02:49:05;;;;;;;10.10;8.23;;;4.90;99.90;;;3.52;100.00;97348.25;5065657;28;20459;-71
2022/05/30 02:51:34;;;;;;;9.23;8.33;;;4.90;99.90;;;3.50;100.00;97336.91;5040064;28;20470;-71
2022/05/30 02:54:01;;;;;;;9.77;8.87;;;4.90;99.90;;;3.51;100.00;97334.06;5068165;28;20459;-71
2022/05/30 02:56:28;;;;;;;9.03;8.13;;;4.90;99.90;;;3.60;100.00;97336.63;5043309;28;20536;-73
2022/05/30 02:58:58;;;;;;;10.27;9.07;;;4.90;99.90;;;3.37;100.00;97332.25;5051689;28;20543;-71
2022/05/30 03:01:26;;;;;;;11.67;8.93;;;4.80;99.90;;;3.55;100.00;97342.50;5059777;28;20451;-71
2022/05/30 03:03:53;;;;;;;9.40;8.23;;;4.90;99.90;;;3.64;100.00;97332.53;5061913;28;20457;-70
2022/05/30 03:06:20;;;;;;;9.83;8.83;;;5.00;99.90;;;3.69;100.00;97339.00;5058050;28;20504;-69
2022/05/30 03:08:50;;;;;;;11.00;10.00;;;5.00;99.90;;;3.66;100.00;97326.00;5066119;28;20509;-70
2022/05/30 03:11:18;;;;;;;10.43;9.43;;;5.10;99.90;;;3.79;100.00;97332.53;5072027;28;20451;-71
2022/05/30 03:13:45;;;;;;;9.30;8.40;;;5.20;99.90;;;3.79;100.00;97338.72;5052581;28;20973;-69
2022/05/30 03:16:13;;;;;;;10.63;9.70;;;5.20;99.90;;;3.65;100.00;97336.91;5062515;28;20471;-71
2022/05/30 03:18:40;;;;;;;11.33;10.30;;;5.10;99.90;;;3.54;100.00;97340.88;5077330;28;20458;-70
2022/05/30 03:21:07;;;;;;;10.47;9.47;;;5.00;99.90;;;3.71;100.00;97346.81;5073596;28;20462;-69
2022/05/30 03:23:34;;;;;;;11.00;9.93;;;5.10;99.90;;;3.75;100.00;97347.28;5054301;28;20453;-70
2022/05/30 03:26:03;;;;;;;11.27;10.27;;;5.10;99.90;;;3.72;100.00;97342.31;5067784;28;20612;-72
2022/05/30 03:28:31;;;;;;;11.90;10.80;;;5.20;99.90;;;3.71;100.00;97345.97;5074004;28;20556;-73
2022/05/30 03:30:58;;;;;;;9.77;8.97;;;5.10;99.90;;;3.63;100.00;97355.78;5067643;28;22897;-70
2022/05/30 03:33:25;;;;;;;11.10;9.97;;;5.10;99.90;;;3.69;100.00;97360.38;5058879;28;20488;-71
2022/05/30 03:35:54;;;;;;;12.27;10.97;;;5.10;99.90;;;3.72;100.00;97336.97;5074207;28;20451;-70
2022/05/30 03:38:21;;;;;;;10.60;9.60;;;5.20;99.90;;;3.76;100.00;97344.41;5058430;28;20544;-69
2022/05/30 03:40:48;;;;;;;10.77;9.77;;;5.20;99.90;;;3.89;100.00;97365.13;5049196;28;20460;-68
2022/05/30 03:43:17;;;;;;;11.43;10.33;;;5.30;99.90;;;3.81;100.00;97363.41;5069684;28;20456;-69
2022/05/30 03:45:45;;;;;;;10.63;9.63;;;5.20;99.90;;;3.90;100.00;97366.78;5072590;28;21025;-73
2022/05/30 03:48:15;;;;;;;10.60;9.73;;;5.30;99.90;;;3.93;100.00;97374.41;5053917;28;20459;-70
2022/05/30 03:50:45;;;;;;;10.97;9.77;;;5.30;99.90;;;3.94;100.00;97376.06;5051154;28;20606;-73
2022/05/30 03:53:13;;;;;;;11.40;9.93;;;5.40;99.90;;;4.01;100.00;97369.97;5072053;28;20831;-72
2022/05/30 03:55:44;;;;;;;12.83;9.73;;;5.40;99.90;;;4.05;100.00;97374.75;5068014;28;20455;-71
2022/05/30 03:58:13;;;;;;;9.93;9.13;;;5.50;99.90;;;4.10;100.00;97361.66;5070025;28;20451;-70
2022/05/30 04:00:44;;;;;;;10.13;9.33;;;5.50;99.90;;;4.17;100.00;97364.41;5069321;28;21084;-71
2022/05/30 04:03:12;;;;;;;10.77;9.77;;;5.60;99.90;;;3.90;100.00;97313.31;5061730;28;20555;-70
2022/05/30 04:05:40;;;;;;;11.10;10.00;;;5.70;99.90;;;4.34;100.00;97366.81;5068266;28;20478;-71
2022/05/30 04:08:08;;;;;;;9.53;8.73;;;5.80;99.90;;;4.85;100.00;97373.81;5052633;28;20460;-72
2022/05/30 04:10:36;;;;;;;8.70;8.00;;;6.20;99.90;;;5.90;100.00;97378.31;5069562;28;20451;-71
2022/05/30 04:13:08;;;;;;;7.43;6.73;;;7.20;99.90;;;6.86;98.69;97369.38;5054318;28;20451;-73
2022/05/30 04:15:36;;;;;;;6.73;6.23;;;8.50;99.90;;;7.53;94.08;97366.59;5073668;28;20514;-71
2022/05/30 04:18:06;;;;;;;6.40;5.90;;;9.40;99.90;;;7.85;86.03;97363.97;5051958;28;20451;-72
2022/05/30 04:20:33;;;;;;;7.57;6.90;;;9.90;88.60;;;8.82;86.24;97364.00;5055209;28;20450;-71
2022/05/30 04:23:00;;;;;;;5.70;5.30;;;10.30;90.40;;;9.58;78.65;97370.09;5045746;28;20447;-70
2022/05/30 04:25:28;;;;;;;4.80;4.40;;;10.90;84.60;;;9.88;76.85;97369.34;5065259;28;21231;-71
2022/05/30 04:27:55;;;;;;;5.20;4.80;;;11.80;82.50;;;10.55;71.63;97373.03;5068752;28;20514;-70
2022/05/30 04:30:23;;;;;;;5.00;4.70;;;12.40;77.40;;;11.03;71.99;97365.81;5052772;28;20445;-70
2022/05/30 04:32:50;;;;;;;5.97;5.50;;;12.90;76.90;;;11.21;70.44;97374.88;5055614;28;20462;-72
2022/05/30 04:35:20;;;;;;;4.93;4.37;;;13.20;76.50;;;10.83;70.68;97376.13;5048046;28;20459;-69
2022/05/30 04:37:47;;;;;;;5.30;4.90;;;13.30;74.70;;;9.77;71.30;97387.09;5058555;28;21044;-71
2022/05/30 04:40:17;;;;;;;5.23;4.77;;;12.70;70.90;;;10.59;69.84;97379.59;5041602;28;20459;-80
2022/05/30 04:42:45;;;;;;;5.83;5.20;;;12.40;73.90;;;10.54;69.71;97384.88;5053483;28;20806;-80
2022/05/30 04:45:14;;;;;;;7.30;6.57;;;12.40;72.40;;;10.82;68.66;97378.00;5056731;28;20444;-81
2022/05/30 04:47:41;;;;;;;5.30;4.90;;;12.50;72.60;;;10.69;69.07;97389.03;5056298;28;20971;-81
2022/05/30 04:50:14;;;;;;;5.30;4.80;;;12.40;72.00;;;10.26;68.50;97380.06;5075953;28;20464;-79
2022/05/30 04:52:45;;;;;;;5.43;4.93;;;12.20;71.40;;;9.53;70.06;97331.38;5078757;28;20459;-79
2022/05/30 04:55:14;;;;;;;5.90;5.40;;;11.80;71.60;;;9.85;70.30;97385.16;5060021;28;20461;-80
2022/05/30 04:57:43;;;;;;;9.23;5.77;;;11.80;71.80;;;11.12;66.18;97382.50;5050838;28;20480;-80
2022/05/30 05:00:14;;;;;;;9.00;5.10;;;12.50;71.10;;;10.99;66.08;97382.72;5063190;28;20478;-80
2022/05/30 05:02:41;;;;;;;5.10;4.70;;;12.80;70.30;;;10.94;66.16;97388.84;5056530;28;20545;-79
2022/05/30 05:05:10;;;;;;;6.03;5.40;;;12.70;69.70;;;11.20;65.12;97390.25;5077854;28;20562;-81
2022/05/30 05:07:45;;;;;;;6.33;5.83;;;12.80;69.80;;;10.72;66.12;97384.00;5078020;28;20499;-80
2022/05/30 05:10:41;;;;;;;5.50;5.00;;;12.80;68.80;;;11.44;64.20;97402.94;5066770;28;20502;-79
2022/05/30 05:13:09;;;;;;;4.93;4.53;;;13.20;68.60;;;11.03;65.04;97411.78;5042055;28;20484;-80
2022/05/30 05:15:36;;;;;;;6.60;5.43;;;12.90;67.90;;;10.44;67.25;97377.34;5073461;28;21111;-79
2022/05/30 05:18:04;;;;;;;5.80;5.30;;;12.30;69.50;;;10.83;66.58;97412.09;5049408;28;20474;-72
2022/05/30 05:20:31;;;;;;;5.90;5.40;;;12.30;69.50;;;11.15;64.46;97419.09;5049544;28;20492;-71
2022/05/30 05:23:01;;;;;;;6.20;5.70;;;12.80;68.60;;;10.97;65.48;97412.69;5060433;28;20465;-76
2022/05/30 05:25:28;;;;;;;5.53;5.00;;;12.90;68.20;;;11.86;62.77;97416.31;5051031;28;20443;-75
2022/05/30 05:27:56;;;;;;;6.17;5.43;;;13.30;67.80;;;11.54;63.13;97415.91;5065872;28;20552;-74
2022/05/30 05:30:23;;;;;;;5.30;4.90;;;13.40;66.60;;;11.99;62.39;97417.13;5058948;28;20496;-74
2022/05/30 05:32:51;;;;;;;5.33;4.50;;;13.50;66.70;;;12.43;61.07;97416.63;5068114;28;20456;-71
2022/05/30 05:35:18;;;;;;;6.97;5.30;;;13.80;66.10;;;12.29;61.71;97418.81;5061912;28;20544;-72
2022/05/30 05:37:45;;;;;;;5.30;4.87;;;13.80;65.80;;;13.52;58.04;97426.63;5061703;28;20547;-79
2022/05/30 05:40:14;;;;;;;4.80;4.40;;;14.50;65.40;;;13.18;58.52;97430.94;5059201;28;20490;-71
2022/05/30 05:42:41;;;;;;;6.03;5.30;;;14.70;64.10;;;13.64;57.16;97423.78;5044709;28;20510;-73
2022/05/30 05:45:10;;;;;;;6.10;4.93;;;15.20;63.50;;;13.84;56.86;97426.78;5060370;28;20560;-73
2022/05/30 05:47:37;;;;;;;5.33;4.93;;;15.50;62.40;;;12.95;58.02;97423.78;5049606;28;20473;-72
2022/05/30 05:50:06;;;;;;;5.30;4.80;;;15.20;61.30;;;12.39;58.77;97435.28;5047908;28;20533;-73
2022/05/30 05:52:33;;;;;;;5.67;5.17;;;14.80;61.00;;;12.93;59.28;97425.94;5063557;28;20457;-72
2022/05/30 05:55:00;;;;;;;6.90;5.23;;;14.70;62.00;;;13.65;55.76;97425.44;5058922;28;20547;-74
2022/05/30 05:57:29;;;;;;;5.00;4.60;;;15.20;61.10;;;13.01;57.08;97430.13;5062234;28;20448;-73
2022/05/30 05:59:56;;;;;;;6.87;5.00;;;15.30;60.00;;;12.36;58.58;97432.22;5061821;28;20543;-73
2022/05/30 06:02:23;;;;;;;5.93;4.80;;;15.00;59.80;;;13.11;57.61;97426.75;5064429;28;20535;-73
2022/05/30 06:04:52;;;;;;;5.67;5.17;;;15.20;60.60;;;12.68;57.92;97405.47;5062757;28;20978;-72
2022/05/30 06:07:20;;;;;;;5.53;5.13;;;15.20;60.10;;;12.37;59.26;97437.41;5053079;28;20475;-76
2022/05/30 06:09:47;;;;;;;5.73;5.23;;;14.90;60.10;;;12.09;60.46;97439.03;5056904;28;20488;-76
2022/05/30 06:12:15;;;;;;;6.10;5.60;;;14.40;61.10;;;13.23;57.21;97440.25;5034276;28;20472;-74
2022/05/30 06:14:43;;;;;;;5.27;4.87;;;14.90;61.10;;;13.63;56.67;97433.81;5046593;28;20824;-74
2022/05/30 06:17:10;;;;;;;5.93;5.20;;;15.30;60.50;;;14.44;54.56;97432.38;5055800;28;20486;-74
2022/05/30 06:19:38;;;;;;;6.27;5.70;;;15.90;59.60;;;14.09;55.24;97439.06;5063763;28;20466;-73
2022/05/30 06:22:05;;;;;;;7.40;5.77;;;15.90;59.20;;;12.89;57.93;97441.03;5055710;28;20462;-76
2022/05/30 06:24:33;;;;;;;6.00;5.50;;;15.20;59.50;;;11.61;62.65;97439.06;5053496;28;21044;-76
2022/05/30 06:27:03;;;;;;;7.50;5.60;;;14.00;61.70;;;10.62;65.00;97453.97;5058906;28;20507;-74
2022/05/30 06:29:30;;;;;;;7.00;6.40;;;12.70;63.60;;;9.82;69.04;97447.66;5044978;28;20965;-74
2022/05/30 06:31:58;;;;;;;6.23;5.63;;;11.70;66.30;;;9.88;68.70;97444.06;5055692;28;20449;-74
2022/05/30 06:34:26;;;;;;;9.43;6.67;;;11.20;69.20;;;9.74;70.10;97444.22;5064800;28;20503;-75
2022/05/30 06:36:53;;;;;;;7.93;6.37;;;11.20;71.50;;;9.90;69.60;97442.78;5041307;28;20914;-74
2022/05/30 06:39:20;;;;;;;7.50;6.67;;;11.20;72.00;;;9.76;71.26;97446.69;5058857;28;20531;-74
2022/05/30 06:41:48;;;;;;;7.80;6.47;;;11.10;73.00;;;9.88;71.23;97444.88;5060408;28;20474;-73
2022/05/30 06:44:16;;;;;;;7.40;6.60;;;11.10;73.80;;;9.89;69.91;97446.53;5060761;28;20453;-72
2022/05/30 06:46:43;;;;;;;6.97;6.47;;;11.20;72.90;;;9.87;70.62;97450.53;5054948;28;20475;-73
2022/05/30 06:49:12;;;;;;;6.40;5.80;;;11.20;73.60;;;9.96;70.00;97443.75;5047452;28;20485;-73
2022/05/30 06:51:39;;;;;;;6.40;5.80;;;11.20;73.20;;;9.64;71.87;97449.28;5041109;28;20831;-75
2022/05/30 06:54:08;;;;;;;6.80;6.20;;;11.10;73.40;;;9.89;71.43;97451.13;5061823;28;20459;-72
2022/05/30 06:58:11;;;;;;;12.10;6.30;;;11.10;74.50;;;10.18;69.06;97449.50;5059693;28;20482;-73
2022/05/30 06:59:28;;;;;;;10.03;7.93;;;11.30;73.60;;;10.51;69.93;97454.75;5048287;28;20484;-74
2022/05/30 07:01:56;;;;;;;6.77;6.17;;;11.60;74.00;;;10.54;69.43;97462.38;5052970;28;20510;-72
2022/05/30 07:04:24;;;;;;;7.07;6.47;;;11.80;73.50;;;10.66;69.30;97465.94;5060662;28;20546;-68
2022/05/30 07:06:51;;;;;;;6.33;5.83;;;11.80;73.70;;;10.38;69.17;97463.81;5061197;28;20468;-72
2022/05/30 07:09:19;;;;;;;7.27;6.57;;;11.80;72.60;;;10.09;70.79;97459.00;5053064;28;20522;-70
2022/05/30 07:11:49;;;;;;;7.93;6.43;;;11.60;73.50;;;10.35;69.87;97465.09;5047197;28;20468;-71
2022/05/30 07:14:17;;;;;;;7.87;7.27;;;11.60;73.40;;;10.26;70.68;97464.56;5044318;28;20478;-71
2022/05/30 07:16:45;;;;;;;8.00;7.30;;;11.60;74.00;;;10.75;67.99;97464.59;5061345;28;20835;-71
2022/05/30 07:19:13;;;;;;;9.40;8.50;;;11.90;73.00;;;10.42;68.24;97422.66;5042726;28;20472;-70
2022/05/30 07:21:42;;;;;;;11.23;8.30;;;12.00;72.30;;;10.61;68.33;97468.53;5054678;28;20210;-71
2022/05/30 07:24:11;;;;;;;8.50;7.70;;;11.90;72.20;;;10.68;68.26;97463.84;5046745;28;20464;-72
2022/05/30 07:26:40;;;;;;;8.50;7.80;;;12.00;72.60;;;10.87;68.63;97474.63;5060317;28;20484;-71
2022/05/30 07:29:08;;;;;;;10.27;7.77;;;12.10;72.80;;;10.53;68.36;97452.63;5061446;28;20548;-74
2022/05/30 07:31:35;;;;;;;8.13;7.43;;;12.00;72.70;;;10.73;69.31;97466.69;5049113;28;20451;-73
2022/05/30 07:34:02;;;;;;;8.70;7.90;;;12.00;72.90;;;11.09;68.54;97463.25;5048074;28;20467;-74
2022/05/30 07:36:32;;;;;;;9.17;8.37;;;12.20;73.40;;;11.27;67.14;97459.63;5060460;28;20484;-74
2022/05/30 07:39:01;;;;;;;8.60;7.80;;;12.40;72.60;;;11.17;66.29;97460.22;5046546;28;20457;-71
2022/05/30 07:41:30;;;;;;;7.53;6.73;;;12.40;71.80;;;11.29;65.51;97462.94;5048611;28;20543;-73
2022/05/30 07:43:58;;;;;;;8.13;7.53;;;12.50;71.20;;;11.38;65.56;97460.69;5064932;28;20460;-72
2022/05/30 07:46:25;;;;;;;8.60;7.73;;;12.60;71.30;;;11.41;66.74;97462.94;5044944;28;20998;-73
2022/05/30 07:48:52;;;;;;;7.50;6.90;;;12.60;71.90;;;11.48;66.06;97471.78;5062636;28;20464;-75
2022/05/30 07:51:19;;;;;;;8.40;7.60;;;12.60;71.50;;;11.67;65.01;97463.53;5050169;28;20488;-73
2022/05/30 07:53:47;;;;;;;9.20;7.17;;;12.80;70.70;;;12.01;64.67;97453.75;5060298;28;20456;-72
2022/05/30 07:56:19;;;;;;;6.90;6.13;;;13.00;70.60;;;11.92;63.12;97470.56;5050664;28;20449;-72
2022/05/30 07:58:46;;;;;;;6.83;6.33;;;13.10;69.20;;;11.81;63.13;97453.28;5054716;28;20494;-71
2022/05/30 08:01:17;;;;;;;10.70;6.57;;;13.00;68.80;;;11.86;63.08;97464.22;5041321;28;20824;-74
2022/05/30 08:03:45;;;;;;;7.07;6.47;;;13.10;68.50;;;11.79;63.41;97467.06;5054202;28;20461;-75
2022/05/30 08:06:20;;;;;;;6.90;6.30;;;12.90;68.80;;;12.24;63.52;97464.78;5055332;28;20956;-75
2022/05/30 08:08:47;;;;;;;6.80;5.10;;;13.20;69.40;;;12.47;61.28;97472.00;5058249;28;20472;-74
2022/05/30 08:11:16;;;;;;;6.47;5.87;;;13.50;67.80;;;12.41;61.15;97465.66;5060579;28;20470;-73
2022/05/30 08:13:45;;;;;;;6.50;6.00;;;13.60;67.20;;;12.63;60.94;97461.47;5056086;28;21173;-72
2022/05/30 08:16:12;;;;;;;6.30;5.80;;;13.80;67.00;;;12.72;59.95;97463.53;5055364;28;20453;-67
2022/05/30 08:18:40;;;;;;;6.17;5.60;;;13.90;66.40;;;12.75;60.24;97468.47;5042918;28;20817;-73
2022/05/30 08:21:07;;;;;;;7.37;5.53;;;13.90;66.00;;;12.79;59.47;97457.13;5061145;28;20464;-76
2022/05/30 08:23:35;;;;;;;6.60;6.00;;;13.90;65.60;;;12.75;58.76;97463.03;5070722;28;20856;-75
2022/05/30 08:26:02;;;;;;;6.30;5.50;;;13.90;64.80;;;12.71;58.58;97466.47;5058106;28;20559;-74
2022/05/30 08:28:30;;;;;;;6.43;5.80;;;13.90;64.30;;;12.93;58.00;97469.31;5070545;28;20577;-79
2022/05/30 08:30:57;;;;;;;6.57;5.40;;;14.00;64.30;;;12.73;57.04;97462.47;5073993;28;20496;-76
2022/05/30 08:33:25;;;;;;;5.87;4.90;;;14.10;62.70;;;12.77;57.07;97459.25;5064095;28;20461;-77
2022/05/30 08:36:01;;;;;;;6.47;5.07;;;14.00;62.50;;;12.92;57.29;97458.72;5064864;28;20558;-78
2022/05/30 08:38:33;;;;;;;7.27;5.10;;;14.00;62.80;;;12.92;57.09;97464.16;5066416;28;20524;-77
2022/05/30 08:43:51;;;;;;;4.77;4.30;;;14.00;60.90;;;12.91;53.42;97455.19;5057537;28;20951;-78
2022/05/30 08:46:37;;;;;;;4.30;3.90;;;14.00;58.90;;;12.90;52.55;97456.25;5082159;28;20525;-77
2022/05/30 08:49:21;;;;;;;5.90;3.90;;;14.00;57.90;;;12.69;52.94;97455.88;5072782;28;20452;-76
2022/05/30 08:52:29;;;;;;;4.53;4.00;;;13.80;57.40;;;12.96;53.00;97452.53;5054975;28;20519;-78
2022/05/30 08:55:09;;;;;;;4.70;4.30;;;13.90;57.80;;;12.96;52.23;97436.28;5035574;28;20511;-76
2022/05/30 08:57:48;;;;;;;4.20;3.70;;;14.10;57.10;;;12.97;53.04;97442.53;5044470;28;20822;-79
2022/05/30 09:00:25;;;;;;;4.37;3.73;;;14.10;57.70;;;12.84;52.43;97444.47;5063884;28;20463;-72
2022/05/30 09:02:59;;;;;;;4.80;3.50;;;14.10;57.20;;;12.83;51.43;97442.03;5079939;28;20460;-77
2022/05/30 09:05:33;;;;;;;4.17;3.40;;;14.00;56.10;;;13.04;51.34;97441.31;5076690;28;20461;-76
2022/05/30 09:08:08;;;;;;;5.07;3.87;;;14.10;56.10;;;13.07;51.43;97452.72;5067957;28;20568;-75
2022/05/30 09:10:40;;;;;;;5.60;3.63;;;14.20;56.10;;;13.26;50.35;97448.69;5062341;28;20544;-75
2022/05/30 09:13:19;;;;;;;4.80;3.10;;;14.30;55.40;;;13.19;49.78;97442.63;5062095;28;20864;-79
2022/05/30 09:15:58;;;;;;;6.00;4.43;;;14.30;54.70;;;12.97;51.32;97451.50;5054793;28;20512;-76
2022/05/30 09:18:33;;;;;;;3.93;3.50;;;14.20;55.30;;;12.88;52.35;97450.25;5039544;28;20880;-78
2022/05/30 09:21:01;;;;;;;8.10;3.73;;;14.10;56.10;;;12.80;51.31;97446.06;5065210;28;20455;-79
2022/05/30 09:23:28;;;;;;;5.13;4.20;;;13.90;55.70;;;12.75;52.02;97441.34;5049047;28;20545;-74
2022/05/30 09:26:00;;;;;;;4.33;3.93;;;13.90;55.70;;;12.75;51.87;97448.69;5046370;28;20464;-78
2022/05/30 09:28:32;;;;;;;5.67;4.03;;;13.90;55.80;;;12.60;52.56;97427.53;5045357;28;20519;-77
2022/05/30 09:31:10;;;;;;;5.13;4.17;;;13.90;56.20;;;13.06;50.88;97440.25;5042938;28;20450;-78
2022/05/30 09:33:42;;;;;;;7.27;4.57;;;14.10;55.50;;;13.31;49.72;97409.97;5055188;28;20990;-79
2022/05/30 09:36:19;;;;;;;6.53;4.20;;;14.40;55.00;;;13.82;49.23;97442.50;5043657;28;20453;-77
2022/05/30 09:38:49;;;;;;;9.03;3.63;;;14.70;54.80;;;13.98;48.85;97440.00;5062505;28;20473;-72
2022/05/30 09:41:23;;;;;;;5.50;3.50;;;15.00;54.80;;;13.96;48.96;97442.13;5058924;28;20460;-77
2022/05/30 09:43:55;;;;;;;5.03;3.83;;;15.00;54.50;;;13.90;48.80;97441.25;5064660;28;20453;-77
2022/05/30 09:46:34;;;;;;;3.70;3.07;;;15.00;54.10;;;13.94;46.61;97438.84;5059047;28;20550;-78
2022/05/30 09:49:08;;;;;;;5.00;3.40;;;15.00;52.30;;;14.13;47.17;97442.09;5068249;28;20484;-81
2022/05/30 09:51:42;;;;;;;4.97;3.87;;;15.10;53.00;;;14.12;44.00;97441.25;5063774;28;20544;-77
2022/05/30 09:54:12;;;;;;;5.83;3.23;;;15.10;50.40;;;14.37;45.50;97448.09;5044145;28;20538;-76
2022/05/30 09:56:43;;;;;;;3.50;3.00;;;15.30;51.60;;;14.78;44.64;97436.00;5066069;28;20465;-76
2022/05/30 09:59:34;;;;;;;5.03;2.80;;;15.60;51.00;;;15.60;41.43;97424.97;5066517;28;20463;-79
2022/05/30 10:02:04;;;;;;;3.83;2.87;;;16.20;50.30;;;16.12;39.37;97428.00;5072153;28;20470;-77
2022/05/30 10:04:38;;;;;;;3.67;2.53;;;16.80;48.30;;;16.36;38.39;97425.66;5053811;28;20463;-79
2022/05/30 10:07:14;;;;;;;3.50;1.90;;;17.20;47.30;;;16.32;36.58;97430.00;5038813;28;20953;-72
2022/05/30 10:09:53;;;;;;;2.80;1.90;;;17.40;45.30;;;16.41;37.28;97427.56;5062162;28;20462;-74
2022/05/30 10:12:42;;;;;;;2.43;2.23;;;17.40;45.10;;;16.61;36.55;97425.97;5037353;28;20554;-76
2022/05/30 10:15:30;;;;;;;3.23;2.90;;;17.60;44.90;;;16.51;40.08;97429.50;5034279;28;20460;-79
2022/05/30 10:18:23;;;;;;;2.87;2.57;;;17.50;47.20;;;15.92;39.71;97426.00;5057979;28;20546;-76
2022/05/30 10:21:08;;;;;;;2.57;2.37;;;17.30;45.80;;;15.95;39.29;97430.91;5045478;28;20535;-79
2022/05/30 10:30:04;;;;;;;4.70;2.83;;;17.00;46.00;;;16.10;39.68;97428.25;5057083;28;20450;-74
2022/05/30 10:32:39;;;;;;;6.70;3.33;;;17.10;46.10;;;15.74;39.90;97425.34;5039768;28;20815;-78
2022/05/30 10:35:23;;;;;;;5.00;3.40;;;16.90;45.60;;;15.44;40.08;97433.03;5060263;28;20503;-78
2022/05/30 10:38:16;;;;;;;3.67;2.67;;;16.60;45.40;;;15.17;41.04;97438.56;5051291;28;20461;-78
2022/05/30 10:41:04;;;;;;;2.63;2.40;;;16.30;45.60;;;15.03;40.52;97427.28;5044490;28;20468;-78
2022/05/30 10:43:47;;;;;;;3.10;2.60;;;16.10;46.00;;;14.73;39.84;97410.44;5073183;28;20479;-80
2022/05/30 10:46:21;;;;;;;3.43;2.50;;;16.00;44.80;;;15.12;39.91;97435.81;5066885;28;20462;-78
2022/05/30 10:48:59;;;;;;;3.17;2.47;;;16.10;45.50;;;15.48;39.84;97430.63;5045040;28;20473;-78
2022/05/30 10:51:33;;;;;;;6.10;2.77;;;16.30;45.60;;;15.39;39.24;97429.44;5065656;28;20458;-77